Time;durP1;ratioP1;P1;durP2;ratioP2;P2;SDS_P1;SDS_P2;PMS_P1;PMS_P2;Temp;Humidity;BMP_temperature;BMP_pressure;BME280_temperature;BME280_humidity;BME280_pressure;Samples;Min_cycle;Max_cycle;Signal;HPM_P1;HPM_P2
2021/06/12 00:00:10;;;;;;;5.30;4.75;;;19.60;98.70;;;;;;5105420;28;20088;-39
2021/06/12 00:02:36;;;;;;;7.57;6.30;;;19.60;98.80;;;;;;5106931;28;20035;-38
2021/06/12 00:05:02;;;;;;;6.13;5.53;;;19.60;98.90;;;;;;5105435;28;20024;-39
2021/06/12 00:07:27;;;;;;;6.38;5.63;;;19.60;99.00;;;;;;5105310;28;20462;-40
2021/06/12 00:09:53;;;;;;;6.13;5.25;;;19.60;98.90;;;;;;5107022;28;20024;-39
2021/06/12 00:12:19;;;;;;;5.57;5.03;;;19.70;98.90;;;;;;5110072;28;20069;-40
2021/06/12 00:14:44;;;;;;;6.30;5.57;;;19.70;98.90;;;;;;5108894;28;20032;-40
2021/06/12 00:17:12;;;;;;;6.43;5.80;;;19.70;98.80;;;;;;5109904;28;20027;-40
2021/06/12 00:19:38;;;;;;;6.55;5.57;;;19.70;98.90;;;;;;5109229;28;20028;-40
2021/06/12 00:22:03;;;;;;;8.75;6.13;;;19.70;99.00;;;;;;5108586;28;20069;-40
2021/06/12 00:24:32;;;;;;;6.70;6.03;;;19.70;99.00;;;;;;5109033;28;20056;-38
2021/06/12 00:26:57;;;;;;;6.72;5.90;;;19.60;99.00;;;;;;5108791;28;20118;-40
2021/06/12 00:29:23;;;;;;;7.32;5.88;;;19.60;99.10;;;;;;5109178;28;20142;-40
2021/06/12 00:31:48;;;;;;;6.70;5.97;;;19.60;99.20;;;;;;5109124;28;20034;-40
2021/06/12 00:34:14;;;;;;;6.47;5.53;;;19.50;99.10;;;;;;5109091;28;20016;-40
2021/06/12 00:36:40;;;;;;;6.55;5.53;;;19.50;99.20;;;;;;5108864;28;20478;-41
2021/06/12 00:39:05;;;;;;;7.30;5.55;;;19.50;99.20;;;;;;5109627;28;20015;-40
2021/06/12 00:41:31;;;;;;;8.30;6.15;;;19.50;99.30;;;;;;5109021;28;20122;-42
2021/06/12 00:43:57;;;;;;;7.38;6.18;;;19.40;99.30;;;;;;5108552;28;20016;-42
2021/06/12 00:46:22;;;;;;;7.72;5.90;;;19.40;99.30;;;;;;5109459;28;20073;-40
2021/06/12 00:48:48;;;;;;;5.70;5.07;;;19.40;99.30;;;;;;5109126;28;20485;-39
2021/06/12 00:51:14;;;;;;;7.07;5.57;;;19.40;99.30;;;;;;5108421;28;20020;-40
2021/06/12 00:53:40;;;;;;;6.03;5.05;;;19.40;99.30;;;;;;5109790;28;20297;-40
2021/06/12 00:56:17;;;;;;;5.40;4.90;;;19.40;99.60;;;;;;5108913;28;20028;-40
2021/06/12 00:58:43;;;;;;;7.97;5.60;;;19.30;99.30;;;;;;5108688;28;20110;-40
2021/06/12 01:01:10;;;;;;;6.00;5.32;;;19.30;99.40;;;;;;5108898;28;20027;-39
2021/06/12 01:03:39;;;;;;;6.78;6.03;;;19.30;99.50;;;;;;5109144;28;20045;-40
2021/06/12 01:06:06;;;;;;;5.93;5.32;;;19.20;99.50;;;;;;5108585;28;20023;-40
2021/06/12 01:08:32;;;;;;;7.30;6.60;;;19.20;99.60;;;;;;5108861;28;20040;-40
2021/06/12 01:11:01;;;;;;;7.80;6.50;;;19.10;99.60;;;;;;5108417;28;20095;-39
2021/06/12 01:13:38;;;;;;;6.95;5.57;;;19.10;99.70;;;;;;5097966;28;20107;-40
2021/06/12 01:16:20;;;;;;;6.90;6.15;;;19.10;99.70;;;;;;5108249;28;20030;-40
2021/06/12 01:18:46;;;;;;;;;;;19.10;99.80;;;;;;5098729;28;20077;-40
2021/06/12 01:21:23;;;;;;;8.48;6.78;;;19.10;99.80;;;;;;5108524;28;20007;-38
2021/06/12 01:24:08;;;;;;;8.20;6.55;;;19.00;99.80;;;;;;5097764;28;20055;-40
2021/06/12 01:27:02;;;;;;;9.00;7.45;;;18.90;99.90;;;;;;5109144;27;20059;-40
2021/06/12 01:29:38;;;;;;;8.00;6.65;;;18.90;99.90;;;;;;5111412;27;20079;-45
2021/06/12 01:32:06;;;;;;;8.32;6.20;;;18.90;99.90;;;;;;5113961;27;20031;-38
2021/06/12 01:34:32;;;;;;;6.30;5.70;;;18.90;99.90;;;;;;5117317;27;20020;-42
2021/06/12 01:36:59;;;;;;;6.95;6.25;;;18.90;99.90;;;;;;5121838;27;20051;-39
2021/06/12 01:39:27;;;;;;;8.05;5.68;;;18.90;99.90;;;;;;5108437;28;20024;-40
2021/06/12 01:41:57;;;;;;;8.68;6.25;;;18.90;99.90;;;;;;5107767;28;20027;-39
2021/06/12 01:44:24;;;;;;;6.40;5.80;;;19.00;99.90;;;;;;5108501;28;20043;-39
2021/06/12 01:46:51;;;;;;;5.97;5.30;;;19.00;99.90;;;;;;5107683;28;20384;-37
2021/06/12 01:49:18;;;;;;;8.05;6.40;;;19.10;99.90;;;;;;5107867;28;20024;-41
2021/06/12 01:51:53;;;;;;;7.85;6.43;;;19.10;99.90;;;;;;5107572;28;20024;-43
2021/06/12 01:54:19;;;;;;;6.10;4.63;;;19.10;99.90;;;;;;5107770;28;20012;-40
2021/06/12 01:56:46;;;;;;;6.75;5.32;;;19.20;99.90;;;;;;5107854;28;20092;-43
2021/06/12 01:59:12;;;;;;;10.40;6.35;;;19.20;99.90;;;;;;5107247;28;20028;-40
2021/06/12 02:01:40;;;;;;;6.55;5.85;;;19.20;99.90;;;;;;5107705;28;20471;-41
2021/06/12 02:04:07;;;;;;;7.20;5.80;;;19.30;99.90;;;;;;5107663;28;20818;-40
2021/06/12 02:06:34;;;;;;;8.20;6.07;;;19.30;99.90;;;;;;5108018;28;20031;-38
2021/06/12 02:09:01;;;;;;;12.00;7.43;;;19.30;99.90;;;;;;5106796;28;20094;-39
2021/06/12 02:11:27;;;;;;;9.10;7.30;;;19.30;99.90;;;;;;5107524;28;20024;-41
2021/06/12 02:13:53;;;;;;;8.75;6.28;;;19.30;99.90;;;;;;5106850;28;20050;-39
2021/06/12 02:16:23;;;;;;;9.00;7.07;;;19.30;99.90;;;;;;5107307;28;20036;-39
2021/06/12 02:18:50;;;;;;;9.98;7.07;;;19.20;99.90;;;;;;5107199;28;20076;-38
2021/06/12 02:21:19;;;;;;;8.70;6.13;;;19.20;99.90;;;;;;5107143;28;20039;-40
2021/06/12 02:23:47;;;;;;;8.57;6.75;;;19.20;99.90;;;;;;5105831;28;20044;-39
2021/06/12 02:26:13;;;;;;;6.40;5.60;;;19.20;99.90;;;;;;5107222;28;20015;-40
2021/06/12 02:28:39;;;;;;;9.02;7.45;;;19.20;99.90;;;;;;5107337;28;20122;-40
2021/06/12 02:31:26;;;;;;;12.77;8.00;;;19.20;99.90;;;;;;5107261;28;20043;-40
2021/06/12 02:33:52;;;;;;;9.45;6.85;;;19.20;99.90;;;;;;5106252;28;20170;-39
2021/06/12 02:36:19;;;;;;;10.82;6.57;;;19.20;99.90;;;;;;5107036;28;20293;-40
2021/06/12 02:38:45;;;;;;;10.63;6.75;;;19.10;99.90;;;;;;5107070;28;20034;-39
2021/06/12 02:41:10;;;;;;;6.88;5.45;;;19.10;99.90;;;;;;5106869;28;20016;-40
2021/06/12 02:43:36;;;;;;;10.15;6.45;;;19.10;99.90;;;;;;5107056;28;20034;-41
2021/06/12 02:46:03;;;;;;;7.68;5.13;;;19.10;99.90;;;;;;5106251;28;20024;-40
2021/06/12 02:48:32;;;;;;;7.28;5.28;;;19.10;99.90;;;;;;5107102;28;20103;-38
2021/06/12 02:50:59;;;;;;;14.05;7.97;;;19.10;99.90;;;;;;5106485;28;20028;-41
2021/06/12 02:53:29;;;;;;;9.02;6.35;;;19.10;99.90;;;;;;5107258;28;20417;-39
2021/06/12 02:55:58;;;;;;;8.90;5.82;;;19.10;99.90;;;;;;5105956;28;20424;-37
2021/06/12 02:58:25;;;;;;;11.88;6.53;;;19.10;99.90;;;;;;5106902;28;20399;-40
2021/06/12 03:00:52;;;;;;;11.45;6.60;;;19.10;99.90;;;;;;5106348;28;20032;-39
2021/06/12 03:03:18;;;;;;;9.68;6.63;;;19.10;99.90;;;;;;5105969;28;20644;-40
2021/06/12 03:05:49;;;;;;;9.77;6.43;;;19.10;99.90;;;;;;5106237;28;20066;-39
2021/06/12 03:08:16;;;;;;;10.60;7.40;;;19.00;99.90;;;;;;5105235;28;20082;-38
2021/06/12 03:10:42;;;;;;;9.90;6.88;;;19.00;99.90;;;;;;5105767;28;20053;-40
2021/06/12 03:13:13;;;;;;;10.85;6.57;;;19.00;99.90;;;;;;5106756;28;20106;-39
2021/06/12 03:15:40;;;;;;;11.60;7.78;;;19.00;99.90;;;;;;5106797;28;20373;-39
2021/06/12 03:18:06;;;;;;;11.80;6.97;;;18.90;99.90;;;;;;5106410;28;20331;-40
2021/06/12 03:20:32;;;;;;;8.98;6.00;;;18.90;99.90;;;;;;5106717;28;20489;-40
2021/06/12 03:23:02;;;;;;;10.18;6.00;;;18.90;99.90;;;;;;5106087;28;20023;-40
2021/06/12 03:25:28;;;;;;;9.00;5.80;;;19.00;99.90;;;;;;5106220;28;20456;-40
2021/06/12 03:27:55;;;;;;;7.55;5.78;;;19.00;99.90;;;;;;5094810;28;20027;-39
2021/06/12 03:30:21;;;;;;;11.20;7.00;;;19.00;99.90;;;;;;5107323;28;20058;-40
2021/06/12 03:32:47;;;;;;;11.95;5.78;;;19.00;99.90;;;;;;5106370;28;20032;-41
2021/06/12 03:35:14;;;;;;;9.45;6.80;;;19.00;99.90;;;;;;5106321;28;20045;-40
2021/06/12 03:37:41;;;;;;;11.25;7.15;;;19.00;99.90;;;;;;5106826;28;20032;-39
2021/06/12 03:40:12;;;;;;;8.98;6.32;;;19.00;99.90;;;;;;5106094;28;20024;-41
2021/06/12 03:42:38;;;;;;;8.88;6.05;;;19.00;99.90;;;;;;5106798;28;20410;-41
2021/06/12 03:45:08;;;;;;;7.97;6.35;;;19.00;99.90;;;;;;5107495;28;20091;-41
2021/06/12 03:47:35;;;;;;;10.98;5.97;;;19.10;99.90;;;;;;5109799;28;20115;-40
2021/06/12 03:50:02;;;;;;;8.02;5.60;;;19.10;99.90;;;;;;5110611;28;20035;-40
2021/06/12 03:52:28;;;;;;;9.55;6.10;;;19.10;99.90;;;;;;5110041;28;20015;-38
2021/06/12 03:54:57;;;;;;;7.18;4.80;;;19.10;99.90;;;;;;5110060;28;20040;-40
2021/06/12 03:57:24;;;;;;;7.35;5.43;;;19.10;99.90;;;;;;5110569;28;20025;-41
2021/06/12 03:59:51;;;;;;;7.55;5.60;;;19.10;99.90;;;;;;5109944;27;20027;-38
2021/06/12 04:02:16;;;;;;;8.95;7.10;;;19.10;99.90;;;;;;5110412;28;20099;-41
2021/06/12 04:04:45;;;;;;;9.45;6.13;;;19.10;99.90;;;;;;5110124;28;20181;-41
2021/06/12 04:07:11;;;;;;;9.45;6.38;;;19.10;99.90;;;;;;5109399;28;20718;-40
2021/06/12 04:09:36;;;;;;;8.10;5.30;;;19.10;99.90;;;;;;5110218;28;20035;-40
2021/06/12 04:12:02;;;;;;;8.68;5.82;;;19.10;99.90;;;;;;5109504;28;20128;-39
2021/06/12 04:14:28;;;;;;;8.85;5.50;;;19.20;99.90;;;;;;5109828;28;20016;-40
2021/06/12 04:16:56;;;;;;;10.75;6.97;;;19.20;99.90;;;;;;5109905;28;20034;-40
2021/06/12 04:19:22;;;;;;;16.63;10.18;;;19.20;99.90;;;;;;5110178;28;20077;-41
2021/06/12 04:21:49;;;;;;;11.15;9.38;;;19.20;99.90;;;;;;5109024;28;20027;-42
2021/06/12 04:24:15;;;;;;;11.20;8.07;;;19.10;99.90;;;;;;5109632;28;20498;-39
2021/06/12 04:26:40;;;;;;;11.15;8.23;;;19.10;99.90;;;;;;5109907;28;20057;-39
2021/06/12 04:29:06;;;;;;;11.38;9.38;;;19.10;99.90;;;;;;5109287;28;20035;-40
2021/06/12 04:31:31;;;;;;;10.27;7.90;;;19.10;99.90;;;;;;5109878;28;20024;-39
2021/06/12 04:33:57;;;;;;;10.30;8.38;;;19.10;99.90;;;;;;5109065;28;20023;-38
2021/06/12 04:36:22;;;;;;;11.77;9.05;;;19.10;99.90;;;;;;5109347;28;20100;-40
2021/06/12 04:38:48;;;;;;;9.98;7.28;;;19.20;99.90;;;;;;5109610;28;20382;-40
2021/06/12 04:41:13;;;;;;;13.63;9.70;;;19.20;99.90;;;;;;5109282;28;20119;-40
2021/06/12 04:43:39;;;;;;;17.17;11.48;;;19.20;99.90;;;;;;5109038;28;20046;-40
2021/06/12 04:46:04;;;;;;;14.35;10.38;;;19.20;99.90;;;;;;5109310;28;20156;-37
2021/06/12 04:48:30;;;;;;;13.32;10.93;;;19.10;99.90;;;;;;5108810;28;20130;-40
2021/06/12 04:50:56;;;;;;;13.98;11.00;;;19.10;99.90;;;;;;5109103;28;20016;-39
2021/06/12 04:53:21;;;;;;;13.05;10.30;;;19.10;99.90;;;;;;5109147;28;20023;-37
2021/06/12 04:55:47;;;;;;;13.25;9.82;;;19.10;99.90;;;;;;5108380;28;20139;-39
2021/06/12 04:58:15;;;;;;;19.70;13.18;;;19.10;99.90;;;;;;5109202;28;20030;-39
2021/06/12 05:00:41;;;;;;;11.73;9.35;;;19.10;99.90;;;;;;5108504;28;20506;-39
2021/06/12 05:03:07;;;;;;;11.90;8.65;;;19.00;99.90;;;;;;5108750;28;20016;-37
2021/06/12 05:05:33;;;;;;;12.68;9.48;;;19.00;99.90;;;;;;5108935;28;20023;-40
2021/06/12 05:07:58;;;;;;;15.57;11.60;;;19.00;99.90;;;;;;5108260;28;20106;-39
2021/06/12 05:10:24;;;;;;;10.98;9.40;;;19.00;99.90;;;;;;5108436;28;20286;-40
2021/06/12 05:12:50;;;;;;;11.52;9.15;;;18.90;99.90;;;;;;5108368;28;20081;-40
2021/06/12 05:15:16;;;;;;;10.10;8.85;;;19.00;99.90;;;;;;5108469;28;20028;-39
2021/06/12 05:17:43;;;;;;;13.52;9.73;;;19.00;99.90;;;;;;5108118;28;20106;-39
2021/06/12 05:20:10;;;;;;;16.20;10.50;;;19.00;99.90;;;;;;5108308;28;20378;-39
2021/06/12 05:22:36;;;;;;;14.27;10.85;;;19.00;99.90;;;;;;5108281;28;20070;-39
2021/06/12 05:25:02;;;;;;;13.43;9.63;;;19.00;99.90;;;;;;5107374;28;20761;-40
2021/06/12 05:27:28;;;;;;;10.43;8.13;;;19.00;99.90;;;;;;5107742;27;20122;-40
2021/06/12 05:29:53;;;;;;;12.48;9.18;;;19.10;99.90;;;;;;5107795;28;20146;-38
2021/06/12 05:32:19;;;;;;;13.00;9.52;;;19.10;99.90;;;;;;5108355;28;20032;-40
2021/06/12 05:34:45;;;;;;;14.63;10.25;;;19.10;99.90;;;;;;5108232;28;20027;-39
2021/06/12 05:37:11;;;;;;;16.33;10.88;;;19.20;99.90;;;;;;5107727;28;20024;-36
2021/06/12 05:39:39;;;;;;;15.35;11.05;;;19.20;99.90;;;;;;5107841;28;20034;-39
2021/06/12 05:42:06;;;;;;;14.18;10.13;;;19.10;99.90;;;;;;5108212;28;20039;-40
2021/06/12 05:44:31;;;;;;;12.07;8.40;;;19.10;99.90;;;;;;5108246;28;20132;-40
2021/06/12 05:46:57;;;;;;;15.90;10.95;;;19.10;99.90;;;;;;5107322;28;20031;-40
2021/06/12 05:49:23;;;;;;;11.18;8.23;;;19.10;99.90;;;;;;5107791;28;20388;-40
2021/06/12 05:51:49;;;;;;;10.65;7.43;;;19.10;99.90;;;;;;5107358;28;20553;-40
2021/06/12 05:54:15;;;;;;;8.10;6.38;;;19.20;99.90;;;;;;5108157;28;20103;-41
2021/06/12 05:56:41;;;;;;;11.52;7.43;;;19.30;99.90;;;;;;5107699;28;20098;-40
2021/06/12 05:59:06;;;;;;;9.88;7.20;;;19.40;99.90;;;;;;5107629;28;20537;-40
2021/06/12 06:01:32;;;;;;;15.55;9.48;;;19.40;99.90;;;;;;5107465;28;20019;-39
2021/06/12 06:03:57;;;;;;;10.18;7.72;;;19.40;99.90;;;;;;5107361;28;20020;-40
2021/06/12 06:06:23;;;;;;;15.20;8.70;;;19.40;99.90;;;;;;5107142;28;20023;-39
2021/06/12 06:08:49;;;;;;;13.43;8.43;;;19.40;99.90;;;;;;5107076;28;20128;-40
2021/06/12 06:11:14;;;;;;;10.32;7.82;;;19.40;99.90;;;;;;5107231;28;20348;-39
2021/06/12 06:13:42;;;;;;;13.77;7.78;;;19.40;99.90;;;;;;5107167;28;20036;-39
2021/06/12 06:16:08;;;;;;;9.93;7.13;;;19.40;99.90;;;;;;5106696;28;20019;-45
2021/06/12 06:18:35;;;;;;;10.60;6.72;;;19.40;99.90;;;;;;5107875;28;20054;-40
2021/06/12 06:21:01;;;;;;;10.20;7.50;;;19.50;99.90;;;;;;5106630;28;20027;-42
2021/06/12 06:23:27;;;;;;;12.15;8.38;;;19.50;99.90;;;;;;5107911;27;20076;-42
2021/06/12 06:25:53;;;;;;;12.02;6.75;;;19.50;99.70;;;;;;5107237;28;20126;-39
2021/06/12 06:28:18;;;;;;;8.93;7.03;;;19.50;99.70;;;;;;5107314;28;20383;-38
2021/06/12 06:30:44;;;;;;;8.70;6.30;;;19.50;99.60;;;;;;5106891;28;20031;-39
2021/06/12 06:33:10;;;;;;;9.23;6.20;;;19.50;99.30;;;;;;5107199;28;20116;-39
2021/06/12 06:35:36;;;;;;;8.65;6.22;;;19.50;99.40;;;;;;5107060;28;20458;-37
2021/06/12 06:38:04;;;;;;;9.50;6.10;;;19.50;99.10;;;;;;5106629;28;20562;-36
2021/06/12 06:40:30;;;;;;;8.55;6.18;;;19.50;99.20;;;;;;5107332;28;20035;-40
2021/06/12 06:42:56;;;;;;;7.43;4.95;;;19.60;99.20;;;;;;5106232;28;20482;-39
2021/06/12 06:45:22;;;;;;;9.13;4.93;;;19.60;99.00;;;;;;5107770;28;20478;-47
2021/06/12 06:47:49;;;;;;;6.32;4.32;;;19.70;99.00;;;;;;5106888;28;20024;-33
2021/06/12 06:50:17;;;;;;;8.57;4.47;;;19.80;98.90;;;;;;5106407;28;20031;-38
2021/06/12 06:52:44;;;;;;;5.45;4.47;;;19.90;97.80;;;;;;5106896;28;20008;-34
2021/06/12 06:55:10;;;;;;;4.88;3.78;;;19.90;96.80;;;;;;5106920;28;20039;-39
2021/06/12 06:57:36;;;;;;;6.25;4.60;;;19.90;97.00;;;;;;5106698;28;20023;-40
2021/06/12 07:00:04;;;;;;;5.72;4.07;;;20.00;96.50;;;;;;5106720;27;20016;-39
2021/06/12 07:02:29;;;;;;;4.88;3.33;;;20.10;96.70;;;;;;5105580;28;20446;-40
2021/06/12 07:04:55;;;;;;;7.20;3.90;;;20.20;96.10;;;;;;5105684;28;20027;-39
2021/06/12 07:07:20;;;;;;;5.35;3.17;;;20.40;95.70;;;;;;5106887;28;20052;-37
2021/06/12 07:09:46;;;;;;;4.97;3.50;;;20.40;95.90;;;;;;5103938;28;20043;-41
2021/06/12 07:12:12;;;;;;;4.13;3.20;;;20.40;95.60;;;;;;5105241;28;20046;-41
2021/06/12 07:14:39;;;;;;;5.82;3.00;;;20.40;95.60;;;;;;5105120;28;20090;-42
2021/06/12 07:17:05;;;;;;;5.70;3.67;;;20.50;95.50;;;;;;5105965;28;20035;-40
2021/06/12 07:19:30;;;;;;;4.78;3.00;;;20.60;94.70;;;;;;5109203;27;20008;-41
2021/06/12 07:21:56;;;;;;;4.95;3.60;;;20.70;94.40;;;;;;5109701;27;20028;-41
2021/06/12 07:24:22;;;;;;;4.78;3.22;;;20.90;93.20;;;;;;5109508;27;20053;-40
2021/06/12 07:26:48;;;;;;;5.95;2.83;;;21.00;93.20;;;;;;5111434;27;20111;-38
2021/06/12 07:29:14;;;;;;;7.45;3.85;;;21.10;93.10;;;;;;5109218;28;20043;-39
2021/06/12 07:31:41;;;;;;;6.65;3.38;;;21.20;91.30;;;;;;5112424;27;20042;-40
2021/06/12 07:34:08;;;;;;;4.00;3.10;;;21.10;91.50;;;;;;5109918;28;20026;-40
2021/06/12 07:36:34;;;;;;;4.15;2.70;;;21.10;91.30;;;;;;5110152;28;20035;-38
2021/06/12 07:39:00;;;;;;;4.00;2.67;;;21.10;91.90;;;;;;5109178;28;20031;-38
2021/06/12 07:41:28;;;;;;;3.00;2.53;;;21.10;91.70;;;;;;5110136;28;20050;-40
2021/06/12 07:43:54;;;;;;;3.72;2.40;;;21.10;91.60;;;;;;5109691;28;20019;-43
2021/06/12 07:46:23;;;;;;;4.45;2.65;;;21.20;91.30;;;;;;5109807;28;20024;-40
2021/06/12 07:48:48;;;;;;;4.85;2.60;;;21.20;91.00;;;;;;5109630;28;20111;-40
2021/06/12 07:51:14;;;;;;;3.95;2.60;;;21.20;91.20;;;;;;5109094;28;20039;-40
2021/06/12 07:53:40;;;;;;;5.13;2.95;;;21.30;90.80;;;;;;5109858;28;20115;-41
2021/06/12 07:56:05;;;;;;;2.63;2.35;;;21.30;90.70;;;;;;5109153;28;20107;-39
2021/06/12 07:58:31;;;;;;;5.63;3.22;;;21.20;90.20;;;;;;5109524;28;20028;-40
2021/06/12 08:00:57;;;;;;;3.33;2.35;;;21.20;90.10;;;;;;5108866;28;20027;-40
2021/06/12 08:03:23;;;;;;;4.68;2.38;;;21.20;90.40;;;;;;5089144;28;20087;-40
2021/06/12 08:05:48;;;;;;;3.70;2.70;;;21.30;90.50;;;;;;5105296;28;20027;-40
2021/06/12 08:08:14;;;;;;;3.95;2.50;;;21.30;90.40;;;;;;5109940;28;20085;-38
2021/06/12 08:10:40;;;;;;;3.72;2.38;;;21.40;90.40;;;;;;5110025;28;20088;-41
2021/06/12 08:13:06;;;;;;;4.30;2.30;;;21.60;89.90;;;;;;5109631;28;20030;-40
2021/06/12 08:15:31;;;;;;;6.40;3.05;;;21.60;89.20;;;;;;5109736;28;20062;-36
2021/06/12 08:17:57;;;;;;;4.68;2.50;;;21.70;86.30;;;;;;5110161;28;20088;-39
2021/06/12 08:20:24;;;;;;;6.03;2.65;;;21.50;86.70;;;;;;5110062;28;20027;-41
2021/06/12 08:22:50;;;;;;;5.53;2.53;;;21.50;86.40;;;;;;5110417;28;20430;-40
2021/06/12 08:25:19;;;;;;;4.30;2.40;;;21.50;87.50;;;;;;5109295;28;20482;-40
2021/06/12 08:27:48;;;;;;;4.43;2.65;;;21.70;86.80;;;;;;5108868;28;20036;-41
2021/06/12 08:30:14;;;;;;;5.22;2.65;;;21.70;84.60;;;;;;5109193;28;20175;-40
2021/06/12 08:32:40;;;;;;;6.43;2.65;;;21.70;84.00;;;;;;5109994;28;20032;-39
2021/06/12 08:35:07;;;;;;;8.52;2.80;;;21.60;84.40;;;;;;5109324;28;20019;-39
2021/06/12 08:37:33;;;;;;;3.05;2.00;;;21.50;82.80;;;;;;5108914;28;20127;-39
2021/06/12 08:39:59;;;;;;;4.18;2.42;;;21.40;84.60;;;;;;5107151;28;20110;-38
2021/06/12 08:42:25;;;;;;;6.30;2.67;;;21.40;85.50;;;;;;5107442;28;20023;-38
2021/06/12 08:44:53;;;;;;;3.78;2.40;;;21.40;85.40;;;;;;5107313;28;20478;-40
2021/06/12 08:47:21;;;;;;;6.82;2.72;;;21.40;85.50;;;;;;5107766;28;20395;-39
2021/06/12 08:49:47;;;;;;;7.82;2.80;;;21.50;84.20;;;;;;5107172;28;20035;-36
2021/06/12 08:52:13;;;;;;;5.35;2.92;;;21.50;83.40;;;;;;5108398;28;20016;-38
2021/06/12 08:54:41;;;;;;;4.93;2.65;;;21.50;83.40;;;;;;5109235;28;20138;-40
2021/06/12 08:57:09;;;;;;;3.72;2.22;;;21.60;83.60;;;;;;5109966;27;20035;-39
2021/06/12 08:59:36;;;;;;;4.22;2.67;;;21.70;84.00;;;;;;5109736;28;20016;-41
2021/06/12 09:02:03;;;;;;;5.45;2.95;;;21.80;82.60;;;;;;5108661;28;20489;-38
2021/06/12 09:04:46;;;;;;;5.38;2.60;;;21.80;82.40;;;;;;5109222;28;20033;-37
2021/06/12 09:07:26;;;;;;;4.43;2.60;;;21.90;82.80;;;;;;5109315;28;20019;-45
2021/06/12 09:09:57;;;;;;;9.20;3.13;;;22.00;82.90;;;;;;5108510;27;20080;-42
2021/06/12 09:12:43;;;;;;;4.20;2.33;;;22.10;81.00;;;;;;5109245;28;20019;-39
2021/06/12 09:15:10;;;;;;;3.80;2.50;;;22.10;81.50;;;;;;5109469;28;20523;-39
2021/06/12 09:17:38;;;;;;;5.00;2.70;;;22.00;80.30;;;;;;5108303;28;20030;-39
2021/06/12 09:20:04;;;;;;;7.20;3.08;;;22.00;80.60;;;;;;5108930;28;20271;-37
2021/06/12 09:22:30;;;;;;;4.75;2.25;;;21.90;80.20;;;;;;5109673;28;20031;-38
2021/06/12 09:24:55;;;;;;;7.32;3.42;;;21.90;80.80;;;;;;5108048;28;20130;-39
2021/06/12 09:27:21;;;;;;;5.93;3.15;;;22.00;79.60;;;;;;5109095;28;20477;-37
2021/06/12 09:29:52;;;;;;;6.53;2.63;;;21.90;79.80;;;;;;5108660;28;20039;-39
2021/06/12 09:32:23;;;;;;;6.93;3.13;;;21.90;81.40;;;;;;5107028;28;20023;-40
2021/06/12 09:34:55;;;;;;;7.90;3.30;;;21.90;80.10;;;;;;5108692;28;20031;-41
2021/06/12 09:37:27;;;;;;;4.20;2.53;;;22.00;79.90;;;;;;5108814;28;20468;-40
2021/06/12 09:40:28;;;;;;;6.63;2.70;;;22.00;80.20;;;;;;5104752;28;20062;-39
2021/06/12 09:42:56;;;;;;;5.85;2.40;;;22.00;80.70;;;;;;5059387;28;20027;-40
2021/06/12 09:45:26;;;;;;;6.63;2.42;;;22.10;80.80;;;;;;5108447;28;20102;-40
2021/06/12 09:48:10;;;;;;;5.38;2.50;;;22.20;80.30;;;;;;5108127;28;20484;-40
2021/06/12 09:50:37;;;;;;;4.78;2.83;;;22.30;80.30;;;;;;5108757;28;20016;-39
2021/06/12 09:53:17;;;;;;;7.28;2.92;;;22.40;79.10;;;;;;5107378;28;20031;-38
2021/06/12 09:55:44;;;;;;;8.98;2.60;;;22.40;79.10;;;;;;5108416;28;20030;-37
2021/06/12 09:58:10;;;;;;;5.80;2.60;;;22.50;79.60;;;;;;5107705;28;20028;-38
2021/06/12 10:00:40;;;;;;;6.65;2.45;;;22.60;77.90;;;;;;5108603;28;20015;-39
2021/06/12 10:03:31;;;;;;;4.50;2.10;;;22.60;78.30;;;;;;5108640;28;20323;-41
2021/06/12 10:06:13;;;;;;;6.40;3.17;;;22.60;79.10;;;;;;5105179;28;20129;-39
2021/06/12 10:08:45;;;;;;;7.13;3.17;;;22.70;76.50;;;;;;5105947;28;20028;-37
2021/06/12 10:11:12;;;;;;;4.22;2.70;;;22.60;76.80;;;;;;5107890;28;20485;-39
2021/06/12 10:13:39;;;;;;;6.43;2.65;;;22.40;76.50;;;;;;5107827;28;20494;-39
2021/06/12 10:16:05;;;;;;;6.90;2.88;;;22.40;76.70;;;;;;5107849;28;20049;-39
2021/06/12 10:18:32;;;;;;;4.45;2.35;;;22.30;76.30;;;;;;5107815;28;20032;-38
2021/06/12 10:20:58;;;;;;;5.30;2.97;;;22.20;77.00;;;;;;5107314;28;20027;-39
2021/06/12 10:23:24;;;;;;;5.88;3.22;;;22.20;76.10;;;;;;5108233;28;20344;-40
2021/06/12 10:25:52;;;;;;;6.28;2.50;;;22.20;76.40;;;;;;5107377;28;20122;-38
2021/06/12 10:28:20;;;;;;;5.93;2.60;;;22.30;76.00;;;;;;5107515;28;20070;-37
2021/06/12 10:30:46;;;;;;;4.55;2.50;;;22.40;74.30;;;;;;5107298;28;20115;-38
2021/06/12 10:33:16;;;;;;;4.20;2.38;;;22.30;74.10;;;;;;5107123;28;20111;-38
2021/06/12 10:35:42;;;;;;;7.45;3.10;;;22.40;74.50;;;;;;5107559;28;20020;-38
2021/06/12 10:38:16;;;;;;;5.53;2.65;;;22.40;73.30;;;;;;5107394;28;20027;-38
2021/06/12 10:40:48;;;;;;;7.75;3.20;;;22.30;73.60;;;;;;5107076;28;20039;-37
2021/06/12 10:43:22;;;;;;;7.03;2.95;;;22.20;74.00;;;;;;5107458;28;20140;-38
2021/06/12 10:46:07;;;;;;;6.75;2.65;;;22.10;75.00;;;;;;5107475;28;20424;-38
2021/06/12 10:48:44;;;;;;;3.80;2.30;;;21.90;74.70;;;;;;5107029;28;20036;-39
2021/06/12 10:51:13;;;;;;;7.65;2.65;;;21.80;75.60;;;;;;5107233;28;20023;-41
2021/06/12 10:53:42;;;;;;;6.05;2.90;;;21.90;76.40;;;;;;5107226;28;20011;-38
2021/06/12 10:56:11;;;;;;;5.40;2.90;;;22.10;74.90;;;;;;5106644;28;20027;-41
2021/06/12 10:58:40;;;;;;;4.43;2.38;;;22.10;74.90;;;;;;5107799;28;20023;-38
2021/06/12 11:01:06;;;;;;;4.60;2.20;;;22.20;75.40;;;;;;5107049;28;20016;-39
2021/06/12 11:04:20;;;;;;;6.75;2.60;;;22.30;75.80;;;;;;5107237;28;20019;-38
2021/06/12 11:06:54;;;;;;;5.78;2.90;;;22.40;74.90;;;;;;5043084;28;20341;-39
2021/06/12 11:09:20;;;;;;;5.72;2.58;;;22.30;74.50;;;;;;5043408;28;20044;-39
2021/06/12 11:11:47;;;;;;;8.70;3.20;;;22.30;74.80;;;;;;5076176;28;20108;-40
2021/06/12 11:14:21;;;;;;;5.95;2.70;;;22.30;74.20;;;;;;5107419;28;20069;-41
2021/06/12 11:17:06;;;;;;;6.00;2.70;;;22.20;74.60;;;;;;5106647;28;20024;-39
2021/06/12 11:19:36;;;;;;;5.65;2.30;;;22.20;74.20;;;;;;5106577;28;20370;-39
2021/06/12 11:22:23;;;;;;;7.72;2.97;;;22.30;74.90;;;;;;5104095;28;20019;-40
2021/06/12 11:24:51;;;;;;;6.90;2.53;;;22.30;73.80;;;;;;5104885;28;20071;-38
2021/06/12 11:27:23;;;;;;;5.68;2.63;;;22.40;74.50;;;;;;5106689;28;20031;-38
2021/06/12 11:30:27;;;;;;;7.30;2.92;;;22.40;74.00;;;;;;5096743;28;20133;-40
2021/06/12 11:32:55;;;;;;;6.35;2.90;;;22.30;72.90;;;;;;5101618;28;20115;-39
2021/06/12 11:35:43;;;;;;;6.00;2.50;;;22.10;74.20;;;;;;5107141;28;20043;-41
2021/06/12 11:38:27;;;;;;;4.78;2.00;;;22.00;74.40;;;;;;5106074;28;20024;-39
2021/06/12 11:41:00;;;;;;;5.55;2.35;;;22.10;75.10;;;;;;5086670;28;20047;-39
2021/06/12 11:43:42;;;;;;;6.18;2.45;;;22.20;75.10;;;;;;5103054;28;20035;-39
2021/06/12 11:46:17;;;;;;;6.38;2.75;;;22.30;73.40;;;;;;5106543;28;20106;-38
2021/06/12 11:48:46;;;;;;;6.20;2.97;;;22.30;73.30;;;;;;5106546;28;20433;-42
2021/06/12 11:51:17;;;;;;;7.20;2.53;;;22.40;71.80;;;;;;5105899;28;20023;-39
2021/06/12 11:54:15;;;;;;;3.57;2.10;;;22.20;72.20;;;;;;5106289;28;20382;-37
2021/06/12 11:56:53;;;;;;;5.85;2.40;;;22.20;74.50;;;;;;5086211;28;20055;-40
2021/06/12 11:59:20;;;;;;;5.43;2.70;;;22.10;74.20;;;;;;5105707;28;20166;-39
2021/06/12 12:01:57;;;;;;;6.03;2.65;;;22.10;74.40;;;;;;5106585;28;20103;-38
2021/06/12 12:04:23;;;;;;;6.93;2.75;;;22.20;74.30;;;;;;5106358;28;20037;-38
2021/06/12 12:06:54;;;;;;;7.60;2.33;;;22.20;73.60;;;;;;5108536;28;20012;-40
2021/06/12 12:09:31;;;;;;;5.15;2.63;;;22.10;74.30;;;;;;5109885;28;20042;-39
2021/06/12 12:11:59;;;;;;;5.22;2.47;;;22.10;74.30;;;;;;5109249;28;20423;-37
2021/06/12 12:14:37;;;;;;;6.82;2.63;;;22.20;74.40;;;;;;5110556;28;20023;-42
2021/06/12 12:17:04;;;;;;;7.70;2.70;;;22.30;73.90;;;;;;5089337;28;20129;-40
2021/06/12 12:19:30;;;;;;;6.22;2.22;;;22.40;72.80;;;;;;5105380;28;20065;-39
2021/06/12 12:21:58;;;;;;;7.75;3.10;;;22.30;73.40;;;;;;5109857;28;20442;-40
2021/06/12 12:24:26;;;;;;;8.27;2.88;;;22.20;72.30;;;;;;5109622;28;20047;-39
2021/06/12 12:26:55;;;;;;;5.15;2.38;;;22.20;73.30;;;;;;5109281;28;20042;-39
2021/06/12 12:29:25;;;;;;;4.18;1.90;;;22.30;73.80;;;;;;5109879;28;20502;-38
2021/06/12 12:31:51;;;;;;;5.78;2.42;;;22.40;73.40;;;;;;5109311;28;20055;-39
2021/06/12 12:34:31;;;;;;;7.15;2.97;;;22.50;72.10;;;;;;5108972;28;20066;-42
2021/06/12 12:36:56;;;;;;;4.15;1.70;;;22.50;71.00;;;;;;5109570;28;20027;-40
2021/06/12 12:39:23;;;;;;;6.50;2.53;;;22.40;72.10;;;;;;5109520;28;20019;-38
2021/06/12 12:41:57;;;;;;;6.93;2.20;;;22.40;71.50;;;;;;5109253;28;20105;-39
2021/06/12 12:44:23;;;;;;;6.72;2.50;;;22.40;72.40;;;;;;5109216;28;20110;-40
2021/06/12 12:46:51;;;;;;;4.97;1.88;;;22.40;70.90;;;;;;5109600;28;20031;-41
2021/06/12 12:49:39;;;;;;;7.28;2.30;;;22.50;71.20;;;;;;5108901;28;20363;-39
2021/06/12 12:52:05;;;;;;;4.60;2.15;;;22.50;71.30;;;;;;5109672;28;20441;-39